Terminal Aerodrome Forecast
Issued by NWS

Home | Current Version | Previous Version | Text Only | Print | Product List | Glossary On
Versions: 1 2 3 4 5 6 7 8 9 10 11 12 13 14 15 16 17 18 19 20 21 22 23 24 25 26 27 28 29
000
FTUS41 KPHI 231700
TAFMIV
TAF
KMIV 231734Z 2318/2418 08012G20KT P6SM -SHRA SCT025 BKN040
     FM232200 08007KT P6SM SCT050 BKN120
     FM240600 04003KT P6SM SCT050 SCT120
     FM240900 00000KT 4SM BR SCT120
     FM241400 04005KT P6SM SCT035=

USA.gov is the U.S. government's official web portal to all federal, state and local government web resources and services.